Time;durP1;ratioP1;P1;durP2;ratioP2;P2;SDS_P1;SDS_P2;PMS_P1;PMS_P2;Temp;Humidity;BMP_temperature;BMP_pressure;BME280_temperature;BME280_humidity;BME280_pressure;Samples;Min_cycle;Max_cycle;Signal;HPM_P1;HPM_P2
2022/07/15 00:00:25;;;;;;;4.90;1.80;;;19.50;72.30;;;;;;5001396;28;20049;-72
2022/07/15 00:02:51;;;;;;;4.80;2.03;;;19.50;74.10;;;;;;5000902;28;20030;-71
2022/07/15 00:05:17;;;;;;;2.50;1.83;;;19.40;73.50;;;;;;5002334;28;20042;-72
2022/07/15 00:07:43;;;;;;;3.10;1.90;;;19.40;72.90;;;;;;5002247;28;20030;-71
2022/07/15 00:10:15;;;;;;;4.80;2.23;;;19.40;74.10;;;;;;5001252;28;20162;-72
2022/07/15 00:12:50;;;;;;;5.20;2.17;;;19.40;74.30;;;;;;4985828;28;20029;-71
2022/07/15 00:15:18;;;;;;;3.28;1.58;;;19.30;74.30;;;;;;4985399;28;20129;-72
2022/07/15 00:17:43;;;;;;;3.33;1.67;;;19.20;74.90;;;;;;5000414;28;20049;-72
2022/07/15 00:20:10;;;;;;;5.30;2.10;;;19.20;75.10;;;;;;5002361;28;20376;-72
2022/07/15 00:22:37;;;;;;;5.55;2.13;;;19.10;75.10;;;;;;5000917;28;20045;-71
2022/07/15 00:25:03;;;;;;;3.92;1.58;;;19.10;75.80;;;;;;5001159;28;20221;-71
2022/07/15 00:27:29;;;;;;;4.78;2.20;;;19.00;75.90;;;;;;5002109;28;20149;-71
2022/07/15 00:29:55;;;;;;;4.37;2.10;;;19.00;76.20;;;;;;5001097;28;20329;-71
2022/07/15 00:32:21;;;;;;;8.07;2.60;;;19.00;76.20;;;;;;5000625;28;20336;-72
2022/07/15 00:34:46;;;;;;;4.03;1.90;;;18.90;76.50;;;;;;5000797;28;20026;-72
2022/07/15 00:37:12;;;;;;;6.13;1.90;;;18.90;76.50;;;;;;5001669;28;20341;-72
2022/07/15 00:39:38;;;;;;;2.43;2.03;;;18.90;77.00;;;;;;5001035;28;20030;-72
2022/07/15 00:42:04;;;;;;;6.00;2.23;;;18.90;76.90;;;;;;5001037;28;20048;-71
2022/07/15 00:44:30;;;;;;;5.57;2.27;;;18.80;76.80;;;;;;5001590;28;20033;-72
2022/07/15 00:46:55;;;;;;;4.82;2.28;;;18.80;76.70;;;;;;4984182;28;20076;-71
2022/07/15 00:49:21;;;;;;;3.73;2.10;;;18.80;77.00;;;;;;5002718;28;20085;-72
2022/07/15 00:51:51;;;;;;;5.03;2.23;;;18.80;77.10;;;;;;5006158;28;20030;-71
2022/07/15 00:54:18;;;;;;;3.72;1.77;;;18.80;78.00;;;;;;4972376;28;20046;-71
2022/07/15 00:56:49;;;;;;;8.35;1.98;;;18.70;77.30;;;;;;4988888;28;20232;-72
2022/07/15 00:59:15;;;;;;;7.10;2.70;;;18.70;77.40;;;;;;4973013;28;20085;-72
2022/07/15 01:01:42;;;;;;;4.93;2.07;;;18.70;77.20;;;;;;4972450;28;20321;-72
2022/07/15 01:04:07;;;;;;;6.35;1.90;;;18.70;77.40;;;;;;4988050;28;20305;-73
2022/07/15 01:06:33;;;;;;;3.87;1.90;;;18.60;76.90;;;;;;5004585;28;20037;-72
2022/07/15 01:08:59;;;;;;;3.83;1.47;;;18.60;77.40;;;;;;5005431;28;20026;-72
2022/07/15 01:11:26;;;;;;;4.90;2.10;;;18.50;77.50;;;;;;5005725;28;20030;-72
2022/07/15 01:13:51;;;;;;;4.60;2.55;;;18.50;76.60;;;;;;4988134;28;20029;-73
2022/07/15 01:16:17;;;;;;;5.80;1.50;;;18.50;77.20;;;;;;4972313;28;20106;-72
2022/07/15 01:18:43;;;;;;;4.47;1.87;;;18.40;77.30;;;;;;5003581;28;20052;-72
2022/07/15 01:21:09;;;;;;;4.03;1.80;;;18.40;76.50;;;;;;5004352;28;20026;-73
2022/07/15 01:23:36;;;;;;;5.67;1.97;;;18.30;76.20;;;;;;4987908;28;20026;-72
2022/07/15 01:26:02;;;;;;;4.18;1.60;;;18.30;77.40;;;;;;5004121;28;20035;-73
2022/07/15 01:28:27;;;;;;;7.77;2.00;;;18.30;77.60;;;;;;5004178;28;20033;-72
2022/07/15 01:30:53;;;;;;;3.80;1.70;;;18.30;77.80;;;;;;4988052;28;20069;-73
2022/07/15 01:33:19;;;;;;;6.23;2.03;;;18.20;78.30;;;;;;5003781;28;20022;-72
2022/07/15 01:35:44;;;;;;;5.57;1.80;;;18.20;78.50;;;;;;5004074;28;20324;-72
2022/07/15 01:38:10;;;;;;;4.70;1.70;;;18.10;78.40;;;;;;5005488;28;20323;-72
2022/07/15 01:40:36;;;;;;;3.60;2.10;;;18.00;79.40;;;;;;5004933;28;20317;-73
2022/07/15 01:43:02;;;;;;;5.83;1.70;;;18.00;79.30;;;;;;5004665;28;20287;-72
2022/07/15 01:45:27;;;;;;;4.73;1.77;;;18.00;79.10;;;;;;5005034;28;20026;-73
2022/07/15 01:47:53;;;;;;;6.73;2.17;;;17.90;79.60;;;;;;5004578;28;20037;-72
2022/07/15 01:50:19;;;;;;;4.27;1.90;;;17.90;79.50;;;;;;5004110;28;20037;-72
2022/07/15 01:52:45;;;;;;;3.97;2.30;;;17.90;80.40;;;;;;4971406;28;20022;-73
2022/07/15 01:55:11;;;;;;;7.03;2.13;;;17.80;80.20;;;;;;5004965;28;20053;-72
2022/07/15 01:57:37;;;;;;;4.10;1.87;;;17.70;80.10;;;;;;4987353;28;20033;-73
2022/07/15 02:00:08;;;;;;;4.50;1.85;;;17.70;80.90;;;;;;4987364;28;20037;-72
2022/07/15 02:02:33;;;;;;;5.07;2.00;;;17.60;80.30;;;;;;5003436;28;20034;-74
2022/07/15 02:04:59;;;;;;;5.10;1.70;;;17.50;80.60;;;;;;5004656;28;20080;-73
2022/07/15 02:07:25;;;;;;;3.17;1.67;;;17.50;81.20;;;;;;5004594;28;20022;-73
2022/07/15 02:09:50;;;;;;;3.87;1.87;;;17.40;81.70;;;;;;5004699;28;20022;-73
2022/07/15 02:12:16;;;;;;;6.00;2.07;;;17.40;82.10;;;;;;5004657;28;20026;-73
2022/07/15 02:14:42;;;;;;;4.83;2.33;;;17.40;82.30;;;;;;5004390;28;20035;-73
2022/07/15 02:17:08;;;;;;;4.53;1.80;;;17.30;82.20;;;;;;5002512;28;20073;-72
2022/07/15 02:19:34;;;;;;;3.00;2.10;;;17.30;81.70;;;;;;5004675;28;20037;-72
2022/07/15 02:22:00;;;;;;;3.38;1.85;;;17.30;81.80;;;;;;4987293;28;20268;-73
2022/07/15 02:24:26;;;;;;;3.22;2.00;;;17.30;82.70;;;;;;4986627;28;20033;-73
2022/07/15 02:26:52;;;;;;;5.93;2.00;;;17.30;82.30;;;;;;4986992;28;20030;-73
2022/07/15 02:29:18;;;;;;;5.50;2.30;;;17.20;83.40;;;;;;5003136;28;20026;-73
2022/07/15 02:31:43;;;;;;;6.23;2.50;;;17.20;83.70;;;;;;4986963;28;20412;-73
2022/07/15 02:34:09;;;;;;;3.97;1.77;;;17.20;84.20;;;;;;5003752;28;20026;-73
2022/07/15 02:36:36;;;;;;;4.57;2.43;;;17.20;84.50;;;;;;5004059;28;20041;-72
2022/07/15 02:39:02;;;;;;;;;;;17.10;83.40;;;;;;4987159;28;20301;-72
2022/07/15 02:41:29;;;;;;;6.72;2.17;;;17.00;83.40;;;;;;4986856;28;19917;-72
2022/07/15 02:43:55;;;;;;;5.40;2.20;;;17.00;83.60;;;;;;4970619;28;20115;-72
2022/07/15 02:46:21;;;;;;;4.70;2.47;;;16.90;85.20;;;;;;5002907;28;20034;-72
2022/07/15 02:48:47;;;;;;;5.40;2.30;;;16.90;86.00;;;;;;5003601;28;20129;-72
2022/07/15 02:51:13;;;;;;;6.53;2.50;;;16.80;85.20;;;;;;5002836;28;20081;-73
2022/07/15 02:53:39;;;;;;;6.53;2.83;;;16.80;86.00;;;;;;4968692;28;20023;-72
2022/07/15 02:56:05;;;;;;;4.67;2.60;;;16.80;86.60;;;;;;5003683;28;20082;-73
2022/07/15 02:58:31;;;;;;;3.53;2.45;;;16.80;86.50;;;;;;4986146;28;20034;-72
2022/07/15 03:00:58;;;;;;;4.83;2.27;;;16.70;86.70;;;;;;4986334;28;20042;-72
2022/07/15 03:03:28;;;;;;;;;;;16.70;86.80;;;;;;5010431;28;20037;-72
2022/07/15 03:05:57;;;;;;;2.97;2.58;;;16.70;87.50;;;;;;5002420;28;19989;-72
2022/07/15 03:08:23;;;;;;;6.60;2.95;;;16.60;87.50;;;;;;5010406;28;20022;-72
2022/07/15 03:10:49;;;;;;;9.27;2.60;;;16.60;87.80;;;;;;5002081;28;20054;-72
2022/07/15 03:13:15;;;;;;;5.10;2.37;;;16.60;88.40;;;;;;5002832;28;20073;-72
2022/07/15 03:15:41;;;;;;;9.38;3.22;;;16.50;89.00;;;;;;4991411;28;20099;-72
2022/07/15 03:18:07;;;;;;;6.73;2.50;;;16.40;88.90;;;;;;4993989;28;20041;-72
2022/07/15 03:20:32;;;;;;;4.53;2.80;;;16.40;89.20;;;;;;5003928;28;20030;-72
2022/07/15 03:22:58;;;;;;;5.67;2.90;;;16.40;89.70;;;;;;4986244;28;20034;-72
2022/07/15 03:25:24;;;;;;;4.73;2.20;;;16.40;90.00;;;;;;5002665;28;20042;-72
2022/07/15 03:27:50;;;;;;;6.00;3.10;;;16.40;89.90;;;;;;5003710;28;20037;-72
2022/07/15 03:30:15;;;;;;;6.70;3.00;;;16.40;90.40;;;;;;5003745;28;20046;-72
2022/07/15 03:32:41;;;;;;;10.10;3.23;;;16.30;90.40;;;;;;5002212;28;20080;-72
2022/07/15 03:35:07;;;;;;;10.63;3.17;;;16.30;90.80;;;;;;4985906;28;20053;-72
2022/07/15 03:37:34;;;;;;;9.02;2.85;;;16.30;90.70;;;;;;5001938;28;20097;-72
2022/07/15 03:40:00;;;;;;;7.15;3.22;;;16.20;90.70;;;;;;5000226;28;20097;-72
2022/07/15 03:42:25;;;;;;;6.57;2.97;;;16.20;90.90;;;;;;5008246;28;20241;-73
2022/07/15 03:44:51;;;;;;;7.27;3.70;;;16.20;91.00;;;;;;4991992;28;20052;-72
2022/07/15 03:47:17;;;;;;;11.07;4.20;;;16.20;90.80;;;;;;5010022;28;20033;-73
2022/07/15 03:49:43;;;;;;;4.37;2.63;;;16.10;90.70;;;;;;4993137;28;20026;-72
2022/07/15 03:52:08;;;;;;;5.60;3.07;;;16.10;90.80;;;;;;4991910;28;20059;-73
2022/07/15 03:54:34;;;;;;;5.53;3.20;;;16.00;90.40;;;;;;4993052;28;20026;-72
2022/07/15 03:57:00;;;;;;;3.80;2.60;;;16.00;90.60;;;;;;4991864;28;20285;-73
2022/07/15 03:59:26;;;;;;;5.67;2.90;;;15.90;91.20;;;;;;4993400;28;20069;-73
2022/07/15 04:01:52;;;;;;;6.60;3.03;;;15.90;91.20;;;;;;4990580;28;20092;-73
2022/07/15 04:04:18;;;;;;;5.45;3.13;;;15.80;91.10;;;;;;4975422;28;20046;-73
2022/07/15 04:06:44;;;;;;;6.20;3.20;;;15.80;91.40;;;;;;4993103;28;20046;-72
2022/07/15 04:09:10;;;;;;;5.47;3.40;;;15.80;91.40;;;;;;4991528;28;20038;-72
2022/07/15 04:11:41;;;;;;;5.63;3.55;;;15.70;91.70;;;;;;4992371;28;20018;-73
2022/07/15 04:14:11;;;;;;;12.13;3.75;;;15.70;91.80;;;;;;4992078;28;20018;-73
2022/07/15 04:16:37;;;;;;;6.40;3.50;;;15.70;91.80;;;;;;4976797;28;20262;-73
2022/07/15 04:19:04;;;;;;;5.88;3.20;;;15.70;91.40;;;;;;4992834;28;20018;-73
2022/07/15 04:21:30;;;;;;;8.18;3.50;;;15.60;91.50;;;;;;4992087;28;20233;-73
2022/07/15 04:23:57;;;;;;;7.80;3.60;;;15.50;92.00;;;;;;4991032;28;20394;-72
2022/07/15 04:26:22;;;;;;;5.95;3.38;;;15.60;92.50;;;;;;4992717;28;20081;-72
2022/07/15 04:28:48;;;;;;;8.97;3.53;;;15.50;92.50;;;;;;4996491;28;20249;-73
2022/07/15 04:31:14;;;;;;;8.23;3.30;;;15.60;92.70;;;;;;4991888;28;20432;-73
2022/07/15 04:33:40;;;;;;;6.25;3.58;;;15.60;92.60;;;;;;4992606;28;20089;-73
2022/07/15 04:36:06;;;;;;;5.50;3.10;;;15.50;92.80;;;;;;4991334;28;20029;-73
2022/07/15 04:38:31;;;;;;;8.23;3.10;;;15.60;93.50;;;;;;4989993;28;20030;-73
2022/07/15 04:40:57;;;;;;;3.50;3.20;;;15.60;92.90;;;;;;4990614;28;20287;-73
2022/07/15 04:43:24;;;;;;;8.47;3.30;;;15.60;92.80;;;;;;4994736;28;20574;-73
2022/07/15 04:45:50;;;;;;;7.28;3.80;;;15.60;92.80;;;;;;4968389;28;20030;-73
2022/07/15 04:51:00;;;;;;;6.60;3.60;;;15.60;93.10;;;;;;5000674;28;20045;-73
2022/07/15 04:53:26;;;;;;;10.23;3.53;;;15.70;93.20;;;;;;5001297;28;20026;-73
2022/07/15 04:55:52;;;;;;;8.27;3.53;;;15.70;93.20;;;;;;5001051;28;20090;-73
2022/07/15 04:58:18;;;;;;;6.00;3.40;;;15.70;93.00;;;;;;4999133;28;20101;-73
2022/07/15 05:00:44;;;;;;;6.07;3.50;;;15.80;92.90;;;;;;4968061;28;20069;-73
2022/07/15 05:03:10;;;;;;;7.13;3.90;;;15.70;92.90;;;;;;5001114;28;20030;-73
2022/07/15 05:05:36;;;;;;;6.20;3.20;;;15.80;93.00;;;;;;5000299;28;20031;-73
2022/07/15 05:08:03;;;;;;;4.97;3.40;;;15.80;92.80;;;;;;5000238;28;20347;-73
2022/07/15 05:10:28;;;;;;;6.32;3.30;;;15.80;93.20;;;;;;5001368;28;20027;-73
2022/07/15 05:12:54;;;;;;;9.88;3.63;;;15.80;93.50;;;;;;4966959;28;20033;-74
2022/07/15 05:15:20;;;;;;;4.97;3.10;;;15.80;93.60;;;;;;4989336;28;20082;-74
2022/07/15 05:17:46;;;;;;;5.63;2.73;;;15.90;94.00;;;;;;4992447;28;20034;-74
2022/07/15 05:20:11;;;;;;;8.10;3.10;;;15.90;93.60;;;;;;4958480;28;20036;-73
2022/07/15 05:22:37;;;;;;;4.73;3.07;;;15.90;92.90;;;;;;4988363;28;20272;-73
2022/07/15 05:25:04;;;;;;;5.43;2.93;;;16.00;93.10;;;;;;4995533;28;20061;-73
2022/07/15 05:27:30;;;;;;;6.68;3.33;;;16.00;93.30;;;;;;4994387;28;20014;-73
2022/07/15 05:29:56;;;;;;;9.17;3.77;;;16.10;93.40;;;;;;4993510;28;20081;-80
2022/07/15 05:32:22;;;;;;;6.37;2.97;;;16.10;93.90;;;;;;4987948;28;20018;-79
2022/07/15 05:34:47;;;;;;;8.37;3.10;;;16.20;93.80;;;;;;4994182;28;20022;-79
2022/07/15 05:37:13;;;;;;;6.20;2.90;;;16.20;92.90;;;;;;4954989;28;1172403;-77
2022/07/15 05:39:53;;;;;;;7.27;3.57;;;16.30;93.00;;;;;;4986463;28;20026;-77
2022/07/15 05:42:22;;;;;;;9.75;4.03;;;16.30;92.70;;;;;;4991790;28;20073;-76
2022/07/15 05:44:48;;;;;;;5.10;3.22;;;16.40;92.30;;;;;;5004772;28;20038;-77
2022/07/15 05:47:15;;;;;;;5.73;3.00;;;16.40;92.40;;;;;;4955736;28;20450;-76
2022/07/15 05:49:41;;;;;;;5.00;3.20;;;16.40;92.30;;;;;;4972920;28;20019;-78
2022/07/15 05:52:07;;;;;;;5.37;2.93;;;16.50;92.50;;;;;;4994103;28;20030;-77
2022/07/15 05:54:33;;;;;;;6.03;3.20;;;16.60;92.50;;;;;;4978668;28;20333;-79
2022/07/15 05:56:59;;;;;;;5.73;3.73;;;16.50;92.00;;;;;;4961768;28;20106;-78
2022/07/15 05:59:25;;;;;;;8.03;3.80;;;16.60;91.80;;;;;;4979211;28;20022;-78
2022/07/15 06:01:50;;;;;;;5.90;3.20;;;16.60;92.60;;;;;;4994977;28;20037;-79
2022/07/15 06:04:16;;;;;;;6.00;3.73;;;16.60;93.20;;;;;;5009746;28;20064;-79
2022/07/15 06:06:42;;;;;;;5.07;3.27;;;16.70;93.20;;;;;;4993947;28;20092;-79
2022/07/15 06:09:09;;;;;;;5.03;3.10;;;16.70;93.10;;;;;;4994574;28;20083;-78
2022/07/15 06:11:34;;;;;;;6.53;4.30;;;16.80;93.20;;;;;;4978824;28;20097;-79
2022/07/15 06:14:01;;;;;;;7.50;3.83;;;16.70;92.10;;;;;;4977685;28;20037;-78
2022/07/15 06:16:26;;;;;;;9.98;3.50;;;16.80;92.40;;;;;;4978388;28;20026;-78
2022/07/15 06:18:52;;;;;;;6.63;3.50;;;16.90;93.20;;;;;;4976845;28;20032;-78
2022/07/15 06:21:18;;;;;;;8.27;3.40;;;16.90;93.60;;;;;;5009956;28;20036;-79
2022/07/15 06:23:43;;;;;;;9.37;3.90;;;17.00;93.30;;;;;;4960957;28;20051;-78
2022/07/15 06:26:09;;;;;;;6.03;3.27;;;17.10;93.60;;;;;;4977685;28;20026;-78
2022/07/15 06:28:35;;;;;;;6.87;3.60;;;17.10;93.80;;;;;;4977208;28;20022;-78
2022/07/15 06:31:01;;;;;;;7.40;3.43;;;17.20;93.70;;;;;;4991595;28;20034;-78
2022/07/15 06:33:27;;;;;;;8.50;3.40;;;17.40;93.30;;;;;;4990288;28;20025;-79
2022/07/15 06:35:52;;;;;;;12.40;3.30;;;17.40;93.10;;;;;;5006065;28;20034;-79
2022/07/15 06:38:19;;;;;;;9.73;3.60;;;17.50;93.10;;;;;;5007624;28;20038;-78
2022/07/15 06:40:44;;;;;;;9.20;3.40;;;17.60;93.10;;;;;;4989324;28;20026;-78
2022/07/15 06:43:10;;;;;;;7.87;3.20;;;17.70;92.90;;;;;;5005591;28;20509;-78
2022/07/15 06:45:36;;;;;;;8.32;3.47;;;17.80;92.70;;;;;;4972929;28;20030;-78
2022/07/15 06:48:02;;;;;;;5.33;3.03;;;17.80;92.80;;;;;;4971882;28;20344;-78
2022/07/15 06:50:28;;;;;;;5.30;3.47;;;17.90;93.00;;;;;;4988348;28;20032;-78
2022/07/15 06:52:54;;;;;;;9.07;3.73;;;18.00;92.80;;;;;;5004440;28;20244;-78
2022/07/15 06:55:20;;;;;;;4.87;3.10;;;18.00;92.60;;;;;;5005090;28;20026;-78
2022/07/15 06:57:46;;;;;;;9.13;3.80;;;18.10;92.90;;;;;;5004782;28;20049;-77
2022/07/15 07:00:14;;;;;;;8.23;3.00;;;18.10;92.70;;;;;;4987036;28;20329;-77
2022/07/15 07:02:41;;;;;;;6.88;3.38;;;18.10;92.80;;;;;;5002422;28;20022;-77
2022/07/15 07:05:08;;;;;;;5.00;3.03;;;18.20;93.10;;;;;;4986570;28;20097;-77
2022/07/15 07:07:34;;;;;;;8.75;3.42;;;18.30;92.70;;;;;;4986622;28;20207;-77
2022/07/15 07:10:00;;;;;;;7.05;3.45;;;18.30;93.00;;;;;;4986714;28;20089;-77
2022/07/15 07:12:26;;;;;;;6.27;3.47;;;18.30;92.50;;;;;;4986680;28;20019;-77
2022/07/15 07:14:53;;;;;;;7.17;3.43;;;18.40;92.90;;;;;;5002552;28;20281;-77
2022/07/15 07:17:19;;;;;;;;;;;18.40;93.20;;;;;;5002977;28;20037;-77
2022/07/15 07:19:45;;;;;;;7.25;3.72;;;18.50;93.10;;;;;;5002300;28;19905;-77
2022/07/15 07:22:11;;;;;;;8.20;3.60;;;18.50;91.70;;;;;;4986431;28;20433;-77
2022/07/15 07:24:36;;;;;;;6.23;3.70;;;18.50;92.00;;;;;;4986114;28;20046;-76
2022/07/15 07:27:02;;;;;;;7.00;3.43;;;18.50;91.90;;;;;;5003403;28;20026;-76
2022/07/15 07:29:28;;;;;;;6.33;3.53;;;18.60;91.70;;;;;;4986105;28;20395;-76
2022/07/15 07:31:54;;;;;;;7.27;3.20;;;18.60;91.00;;;;;;4986112;28;20062;-76
2022/07/15 07:34:19;;;;;;;4.67;3.03;;;18.60;89.80;;;;;;5002938;28;20023;-77
2022/07/15 07:36:46;;;;;;;5.00;3.13;;;18.70;90.10;;;;;;4986219;28;20026;-77
2022/07/15 07:39:12;;;;;;;6.07;3.13;;;18.70;91.60;;;;;;4985918;28;20027;-76
2022/07/15 07:41:38;;;;;;;;;;;18.80;91.90;;;;;;4986593;28;20022;-76
2022/07/15 07:44:05;;;;;;;11.95;3.17;;;18.80;90.20;;;;;;5002029;28;19921;-77
2022/07/15 07:46:31;;;;;;;6.30;2.83;;;18.80;89.60;;;;;;5001999;28;20030;-77
2022/07/15 07:48:57;;;;;;;5.47;2.80;;;18.80;90.50;;;;;;5001767;28;20022;-76
2022/07/15 07:51:23;;;;;;;4.80;2.73;;;18.90;91.10;;;;;;5003185;28;20033;-75
2022/07/15 07:53:49;;;;;;;8.07;3.13;;;18.90;90.90;;;;;;5001805;28;20277;-76
2022/07/15 07:56:15;;;;;;;7.00;2.70;;;19.00;90.50;;;;;;5002034;28;20037;-76
2022/07/15 07:58:40;;;;;;;6.50;2.50;;;19.10;91.00;;;;;;5002767;28;20037;-76
2022/07/15 08:01:06;;;;;;;4.50;2.33;;;19.10;89.10;;;;;;5003014;28;20089;-76
2022/07/15 08:03:32;;;;;;;5.57;2.75;;;19.20;90.10;;;;;;5002440;28;20042;-76
2022/07/15 08:05:58;;;;;;;4.80;2.70;;;19.30;90.60;;;;;;5003000;28;20570;-76
2022/07/15 08:08:24;;;;;;;5.47;2.83;;;19.30;90.30;;;;;;5002737;28;20029;-76
2022/07/15 08:10:52;;;;;;;7.57;2.43;;;19.40;89.50;;;;;;4985783;28;20019;-76
2022/07/15 08:13:20;;;;;;;4.97;2.00;;;19.50;90.00;;;;;;4985815;28;20097;-76
2022/07/15 08:15:45;;;;;;;4.47;1.95;;;19.50;80.80;;;;;;4985648;28;20026;-76
2022/07/15 08:18:11;;;;;;;5.07;1.70;;;19.50;81.50;;;;;;4984714;28;20018;-75
2022/07/15 08:20:37;;;;;;;3.95;1.60;;;19.50;83.60;;;;;;5001731;28;20026;-76
2022/07/15 08:23:04;;;;;;;5.17;2.17;;;19.50;82.60;;;;;;4985227;28;20034;-76
2022/07/15 08:25:32;;;;;;;2.80;1.73;;;19.50;78.20;;;;;;4985397;28;20033;-76
2022/07/15 08:27:58;;;;;;;6.75;1.50;;;19.60;80.00;;;;;;4970044;28;20351;-76
2022/07/15 08:30:27;;;;;;;8.40;2.67;;;19.60;80.60;;;;;;4969443;28;20061;-76
2022/07/15 08:32:54;;;;;;;5.88;2.20;;;19.60;78.20;;;;;;4969657;28;20220;-76
2022/07/15 08:35:20;;;;;;;;;;;19.70;79.70;;;;;;4985887;28;20033;-76
2022/07/15 08:37:46;;;;;;;8.45;1.95;;;19.80;79.30;;;;;;5001359;28;19910;-76
2022/07/15 08:40:12;;;;;;;6.57;2.00;;;19.90;76.00;;;;;;4997333;28;20024;-75
2022/07/15 08:42:43;;;;;;;4.15;1.50;;;20.00;77.30;;;;;;4985250;28;20293;-75
2022/07/15 08:45:09;;;;;;;6.28;1.85;;;20.10;80.40;;;;;;4970389;28;20060;-75
2022/07/15 08:47:37;;;;;;;4.50;1.63;;;20.20;78.20;;;;;;4985272;28;20221;-75
2022/07/15 08:50:03;;;;;;;2.58;1.85;;;20.30;78.70;;;;;;4977877;28;20308;-75
2022/07/15 08:52:28;;;;;;;6.82;2.15;;;20.40;79.90;;;;;;4968398;28;20039;-76
2022/07/15 08:54:54;;;;;;;3.13;2.00;;;20.50;80.80;;;;;;4988273;28;20026;-75
2022/07/15 08:57:20;;;;;;;5.90;2.00;;;20.50;81.30;;;;;;4974894;28;20076;-76
2022/07/15 08:59:46;;;;;;;7.93;2.00;;;20.60;74.60;;;;;;4993167;28;20037;-75
2022/07/15 09:02:18;;;;;;;5.13;1.70;;;20.50;72.70;;;;;;4973952;28;20033;-76
2022/07/15 09:05:18;;;;;;;5.75;2.30;;;20.50;74.50;;;;;;4986136;28;20046;-76
2022/07/15 09:08:02;;;;;;;4.60;1.70;;;20.60;75.90;;;;;;4982697;28;20034;-75
2022/07/15 09:10:54;;;;;;;4.97;1.83;;;20.60;74.80;;;;;;4987755;28;20022;-76
2022/07/15 09:13:34;;;;;;;2.97;1.80;;;20.60;74.90;;;;;;5005830;28;20541;-75
2022/07/15 09:16:19;;;;;;;6.22;1.83;;;20.70;70.80;;;;;;5004924;28;20069;-75
2022/07/15 09:18:45;;;;;;;6.10;2.40;;;20.70;72.40;;;;;;5005359;28;20014;-75
2022/07/15 09:21:18;;;;;;;3.88;1.55;;;20.70;74.10;;;;;;4972293;28;20206;-75
2022/07/15 09:23:44;;;;;;;7.75;2.83;;;20.80;74.40;;;;;;4989037;28;20067;-75
2022/07/15 09:26:27;;;;;;;5.43;2.17;;;20.80;73.40;;;;;;4988105;28;20073;-75
2022/07/15 09:28:53;;;;;;;4.63;1.95;;;20.80;74.40;;;;;;4988219;28;20348;-75
2022/07/15 09:34:21;;;;;;;5.57;2.08;;;20.90;75.00;;;;;;5004464;28;20021;-75
2022/07/15 09:36:52;;;;;;;4.05;1.95;;;20.90;74.60;;;;;;5004622;28;20026;-75
2022/07/15 09:39:19;;;;;;;4.80;2.13;;;21.00;74.00;;;;;;4969369;28;20357;-75
2022/07/15 09:41:45;;;;;;;3.90;1.58;;;21.00;69.90;;;;;;4968994;28;20023;-75
2022/07/15 09:44:20;;;;;;;8.27;2.22;;;21.00;71.40;;;;;;4984782;28;20089;-75
2022/07/15 09:46:49;;;;;;;4.82;2.30;;;21.00;74.40;;;;;;4984826;28;20023;-75
2022/07/15 09:49:34;;;;;;;3.20;2.10;;;21.00;73.70;;;;;;4983460;28;20026;-76
2022/07/15 09:52:13;;;;;;;4.88;1.67;;;21.00;69.10;;;;;;4983871;28;20023;-73
2022/07/15 09:54:47;;;;;;;3.40;1.70;;;21.10;67.30;;;;;;4983432;28;20038;-73
2022/07/15 09:57:18;;;;;;;3.08;1.83;;;21.10;64.40;;;;;;4983630;28;20027;-73
2022/07/15 09:59:45;;;;;;;3.67;2.33;;;21.20;65.70;;;;;;4999677;28;20337;-73
2022/07/15 10:02:11;;;;;;;3.50;1.40;;;21.20;65.20;;;;;;4967281;28;20042;-73
2022/07/15 10:04:37;;;;;;;2.08;1.50;;;21.20;65.80;;;;;;5004676;28;20026;-73
2022/07/15 10:07:04;;;;;;;;;;;21.30;65.70;;;;;;5003218;28;20183;-73
2022/07/15 10:09:32;;;;;;;3.70;1.83;;;21.40;67.10;;;;;;5002937;28;19936;-73
2022/07/15 10:12:07;;;;;;;3.85;1.90;;;21.50;65.50;;;;;;5003014;28;20018;-73
2022/07/15 10:14:52;;;;;;;4.72;1.70;;;21.50;64.90;;;;;;5002666;28;20037;-73
2022/07/15 10:17:55;;;;;;;9.85;3.45;;;21.60;66.30;;;;;;5003168;28;20050;-73
2022/07/15 10:20:53;;;;;;;4.95;2.33;;;21.70;65.40;;;;;;4984081;28;20062;-73
2022/07/15 10:23:28;;;;;;;2.65;1.85;;;21.80;66.60;;;;;;4983007;28;20170;-73
2022/07/15 10:26:39;;;;;;;6.38;2.20;;;21.90;65.80;;;;;;4967855;28;20278;-73
2022/07/15 10:29:07;;;;;;;4.88;1.70;;;22.00;64.30;;;;;;4970659;28;20081;-73
2022/07/15 10:31:33;;;;;;;4.43;1.98;;;22.10;65.50;;;;;;4967349;28;20348;-73
2022/07/15 10:34:02;;;;;;;;;;;22.10;62.80;;;;;;4967145;28;20406;-73
2022/07/15 10:36:47;;;;;;;4.38;2.03;;;22.20;64.50;;;;;;4984262;28;20152;-73
2022/07/15 10:39:17;;;;;;;5.32;2.00;;;22.40;65.30;;;;;;4984009;28;20030;-73
2022/07/15 10:41:57;;;;;;;4.78;2.10;;;22.40;63.80;;;;;;4951462;28;20026;-73
2022/07/15 10:44:26;;;;;;;4.75;1.83;;;22.50;63.50;;;;;;4966891;28;20516;-74
2022/07/15 10:47:13;;;;;;;4.63;1.65;;;22.70;65.30;;;;;;4966790;28;20030;-74
2022/07/15 10:49:57;;;;;;;3.63;2.25;;;22.80;64.10;;;;;;4998097;28;20053;-73
2022/07/15 10:52:32;;;;;;;3.22;1.65;;;22.90;63.50;;;;;;5002555;28;20030;-73
2022/07/15 10:55:03;;;;;;;2.55;1.90;;;22.90;60.20;;;;;;5001899;28;20029;-74
2022/07/15 10:57:44;;;;;;;2.80;1.90;;;22.80;61.60;;;;;;5002275;28;20030;-74
2022/07/15 11:00:36;;;;;;;4.57;2.10;;;22.70;64.10;;;;;;5003227;28;20022;-74
2022/07/15 11:03:07;;;;;;;4.63;1.70;;;22.50;60.60;;;;;;5001803;28;20018;-74
2022/07/15 11:05:33;;;;;;;4.28;1.88;;;22.40;61.80;;;;;;5001706;28;20142;-74
2022/07/15 11:07:59;;;;;;;3.65;1.83;;;22.40;64.40;;;;;;4986149;28;20332;-74
2022/07/15 11:10:24;;;;;;;3.03;1.70;;;22.40;64.20;;;;;;4985900;28;20026;-73
2022/07/15 11:12:50;;;;;;;5.87;1.93;;;22.30;67.10;;;;;;5002721;28;20022;-74
2022/07/15 11:15:17;;;;;;;1.70;1.43;;;22.40;65.90;;;;;;5002904;28;20018;-74
2022/07/15 11:17:49;;;;;;;3.58;2.13;;;22.50;65.20;;;;;;4969666;28;20022;-73
2022/07/15 11:20:34;;;;;;;5.40;2.28;;;22.70;62.60;;;;;;5000935;28;20022;-74
2022/07/15 11:23:01;;;;;;;2.60;1.70;;;22.70;63.30;;;;;;4969307;28;20022;-74
2022/07/15 11:25:37;;;;;;;4.13;2.10;;;22.70;62.70;;;;;;4985235;28;20026;-74
2022/07/15 11:28:12;;;;;;;2.63;1.60;;;22.70;65.10;;;;;;4985779;28;20033;-74
2022/07/15 11:30:53;;;;;;;3.30;1.75;;;22.70;67.50;;;;;;4970527;28;20064;-74
2022/07/15 11:33:21;;;;;;;3.03;1.83;;;22.70;64.70;;;;;;4985517;28;20093;-74
2022/07/15 11:35:54;;;;;;;2.80;1.30;;;22.90;64.20;;;;;;4985623;28;20318;-74
2022/07/15 11:38:23;;;;;;;6.43;2.17;;;23.20;63.30;;;;;;5001516;28;20030;-74
2022/07/15 11:46:30;;;;;;;5.82;2.15;;;23.70;60.20;;;;;;5001149;28;20028;-74
2022/07/15 11:48:57;;;;;;;2.65;1.60;;;23.90;60.70;;;;;;5000629;28;20175;-74
2022/07/15 11:51:28;;;;;;;3.25;1.85;;;23.90;58.40;;;;;;5002413;28;20018;-74
2022/07/15 11:53:54;;;;;;;3.17;1.80;;;23.90;59.10;;;;;;4985151;28;20093;-74
2022/07/15 11:56:20;;;;;;;3.25;1.70;;;23.90;59.30;;;;;;4984858;28;20029;-74
2022/07/15 11:58:54;;;;;;;4.68;1.73;;;23.80;60.30;;;;;;5002084;28;20030;-74
2022/07/15 12:01:30;;;;;;;2.00;1.38;;;23.80;60.30;;;;;;4970019;28;20022;-74
2022/07/15 12:03:58;;;;;;;4.38;1.88;;;23.60;61.00;;;;;;4985671;28;20029;-75
2022/07/15 12:06:31;;;;;;;4.95;1.90;;;23.60;60.20;;;;;;4968746;28;20037;-74
2022/07/15 12:09:03;;;;;;;3.70;1.60;;;23.60;61.40;;;;;;5000971;28;20022;-74
2022/07/15 12:11:33;;;;;;;5.38;2.00;;;23.50;59.50;;;;;;4969408;28;20110;-74
2022/07/15 12:14:11;;;;;;;3.45;1.73;;;23.50;59.30;;;;;;4968470;28;20027;-74
2022/07/15 12:16:50;;;;;;;4.85;1.58;;;23.60;60.00;;;;;;5000639;28;20262;-73
2022/07/15 12:19:29;;;;;;;4.03;2.08;;;23.80;62.70;;;;;;5000064;28;20021;-75
2022/07/15 12:22:00;;;;;;;5.40;1.90;;;24.10;60.20;;;;;;4985124;28;20025;-75
2022/07/15 12:24:38;;;;;;;2.30;1.90;;;24.30;58.50;;;;;;4953058;28;20225;-75
2022/07/15 12:27:04;;;;;;;3.13;1.80;;;24.30;58.30;;;;;;4970186;28;20057;-75
2022/07/15 12:29:31;;;;;;;4.63;1.63;;;24.50;60.90;;;;;;5001883;28;20097;-75
2022/07/15 12:32:17;;;;;;;5.57;1.65;;;24.80;61.20;;;;;;5000128;28;20089;-75
2022/07/15 12:34:57;;;;;;;4.75;1.75;;;25.00;58.10;;;;;;5001029;28;20065;-75
2022/07/15 12:37:25;;;;;;;3.47;1.50;;;25.30;58.50;;;;;;4968254;28;20090;-75
2022/07/15 12:39:59;;;;;;;3.85;1.60;;;25.50;58.70;;;;;;5000557;28;20061;-74
2022/07/15 12:42:28;;;;;;;5.43;2.35;;;25.70;57.50;;;;;;5000446;28;20029;-75
2022/07/15 12:45:19;;;;;;;3.03;1.63;;;25.90;59.40;;;;;;4967985;28;20317;-75
2022/07/15 12:48:08;;;;;;;6.10;1.60;;;25.90;58.00;;;;;;5000379;28;20125;-74
2022/07/15 12:50:54;;;;;;;6.90;2.53;;;26.10;58.60;;;;;;4964748;28;20023;-75
2022/07/15 12:53:20;;;;;;;4.00;1.75;;;26.20;56.40;;;;;;4986772;28;20132;-74
2022/07/15 12:55:49;;;;;;;2.78;1.45;;;26.30;55.60;;;;;;5004308;28;20038;-75
2022/07/15 12:58:16;;;;;;;1.65;1.55;;;26.20;55.50;;;;;;4984500;28;20096;-75
2022/07/15 13:00:43;;;;;;;4.88;2.15;;;26.00;57.70;;;;;;4984215;28;20344;-75
2022/07/15 13:03:14;;;;;;;2.90;1.55;;;25.90;56.80;;;;;;4983992;28;20042;-75
2022/07/15 13:05:42;;;;;;;3.20;1.58;;;25.90;56.70;;;;;;5000073;28;20173;-75